Time;durP1;ratioP1;P1;durP2;ratioP2;P2;SDS_P1;SDS_P2;PMS_P1;PMS_P2;Temp;Humidity;BMP_temperature;BMP_pressure;BME280_temperature;BME280_humidity;BME280_pressure;Samples;Min_cycle;Max_cycle;Signal;HPM_P1;HPM_P2
2021/11/25 00:01:36;;;;;;;23.02;11.07;;;4.50;82.40;;;;;;6212448;28;20089;-83
2021/11/25 00:04:38;;;;;;;23.90;13.20;;;4.50;82.40;;;;;;6212524;28;20065;-82
2021/11/25 00:07:40;;;;;;;27.77;11.98;;;4.40;82.20;;;;;;6209991;28;20054;-82
2021/11/25 00:10:43;;;;;;;24.10;11.65;;;4.40;82.30;;;;;;6215394;28;20050;-84
2021/11/25 00:13:45;;;;;;;26.25;11.30;;;4.50;82.20;;;;;;6217161;28;20110;-84
2021/11/25 00:16:48;;;;;;;26.38;12.15;;;4.40;82.40;;;;;;6214167;28;20108;-83
2021/11/25 00:19:50;;;;;;;23.48;10.57;;;4.30;82.40;;;;;;6214240;28;20077;-82
2021/11/25 00:22:52;;;;;;;29.17;11.40;;;4.30;82.60;;;;;;6213858;28;20101;-83
2021/11/25 00:25:54;;;;;;;22.67;11.32;;;4.20;82.90;;;;;;6214748;28;20141;-83
2021/11/25 00:28:55;;;;;;;22.50;11.57;;;4.20;83.10;;;;;;6213495;28;20042;-84
2021/11/25 00:31:59;;;;;;;19.85;9.43;;;4.20;83.30;;;;;;6214523;28;20082;-84
2021/11/25 00:35:01;;;;;;;19.25;9.88;;;4.10;83.20;;;;;;6213143;28;20046;-82
2021/11/25 00:38:03;;;;;;;25.92;11.50;;;4.10;83.20;;;;;;6213949;28;20074;-84
2021/11/25 00:41:04;;;;;;;20.25;10.25;;;4.10;83.30;;;;;;6211270;28;20058;-82
2021/11/25 00:44:06;;;;;;;25.05;11.43;;;4.10;83.30;;;;;;6212572;28;20106;-81
2021/11/25 00:47:10;;;;;;;30.73;12.10;;;4.10;83.50;;;;;;6213380;28;20050;-83
2021/11/25 00:50:15;;;;;;;26.25;10.88;;;4.20;83.50;;;;;;6214467;28;20113;-82
2021/11/25 00:53:17;;;;;;;25.13;10.27;;;4.10;83.10;;;;;;6205939;28;20048;-83
2021/11/25 00:56:19;;;;;;;23.95;11.18;;;4.10;83.50;;;;;;6206096;28;20054;-83
2021/11/25 00:59:20;;;;;;;22.00;10.10;;;4.20;83.60;;;;;;6205217;28;20046;-83
2021/11/25 01:02:24;;;;;;;23.10;9.55;;;4.20;83.40;;;;;;6207210;28;20189;-81
2021/11/25 01:05:25;;;;;;;22.70;10.95;;;4.20;83.40;;;;;;6213462;28;20523;-83
2021/11/25 01:08:28;;;;;;;22.85;10.00;;;4.30;83.30;;;;;;6212525;28;20092;-81
2021/11/25 01:11:29;;;;;;;28.60;11.80;;;4.40;83.30;;;;;;6213509;28;20062;-83
2021/11/25 01:14:33;;;;;;;21.83;9.32;;;4.40;83.30;;;;;;6212987;28;20104;-81
2021/11/25 01:17:39;;;;;;;19.05;9.07;;;4.40;83.70;;;;;;6212352;28;20089;-81
2021/11/25 01:20:43;;;;;;;24.92;9.80;;;4.40;82.90;;;;;;6214032;28;20050;-81
2021/11/25 01:23:45;;;;;;;20.08;10.10;;;4.30;83.00;;;;;;6209981;28;20073;-83
2021/11/25 01:26:47;;;;;;;23.08;10.73;;;4.30;83.30;;;;;;6209002;28;20050;-82
2021/11/25 01:29:48;;;;;;;19.85;9.93;;;4.30;83.30;;;;;;6206098;28;20118;-83
2021/11/25 01:32:51;;;;;;;28.38;10.88;;;4.40;83.30;;;;;;6206186;28;20132;-83
2021/11/25 01:35:55;;;;;;;20.60;9.88;;;4.50;83.20;;;;;;6206302;28;20050;-82
2021/11/25 01:38:56;;;;;;;22.30;11.35;;;4.50;83.10;;;;;;6205981;28;20113;-83
2021/11/25 01:41:58;;;;;;;27.73;11.20;;;4.50;83.60;;;;;;6208354;28;20070;-83
2021/11/25 01:45:00;;;;;;;25.40;10.77;;;4.60;83.00;;;;;;6207071;28;20046;-81
2021/11/25 01:48:04;;;;;;;17.88;9.70;;;4.60;82.70;;;;;;6205880;28;20443;-82
2021/11/25 01:51:06;;;;;;;20.80;9.70;;;4.50;83.00;;;;;;6203465;28;20050;-81
2021/11/25 01:54:08;;;;;;;27.02;9.25;;;4.50;83.20;;;;;;6205825;28;20046;-82
2021/11/25 01:57:10;;;;;;;19.40;10.55;;;4.50;83.30;;;;;;6203678;28;20547;-82
2021/11/25 02:00:15;;;;;;;15.45;9.23;;;4.60;83.20;;;;;;6204632;28;20106;-83
2021/11/25 02:03:19;;;;;;;21.60;10.02;;;4.40;83.00;;;;;;6205992;28;20142;-82
2021/11/25 02:06:20;;;;;;;30.25;10.68;;;4.40;83.30;;;;;;6206042;28;20057;-84
2021/11/25 02:09:22;;;;;;;18.23;9.75;;;4.40;83.50;;;;;;6204982;28;20101;-82
2021/11/25 02:12:24;;;;;;;20.73;10.50;;;4.40;83.50;;;;;;6205372;28;20078;-81
2021/11/25 02:15:27;;;;;;;20.83;10.07;;;4.40;83.50;;;;;;6205712;28;20081;-83
2021/11/25 02:18:30;;;;;;;17.95;10.23;;;4.50;83.50;;;;;;6206291;28;20054;-84
2021/11/25 02:21:34;;;;;;;22.95;10.38;;;4.40;83.40;;;;;;6205029;28;20133;-82
2021/11/25 02:24:36;;;;;;;24.73;9.15;;;4.30;83.40;;;;;;6206632;28;20110;-83
2021/11/25 02:27:38;;;;;;;21.23;10.10;;;4.20;83.80;;;;;;6207111;28;20050;-82
2021/11/25 02:30:40;;;;;;;26.63;9.88;;;4.10;83.90;;;;;;6212383;28;20054;-83
2021/11/25 02:33:43;;;;;;;30.98;10.77;;;4.10;84.20;;;;;;6208121;28;20057;-83
2021/11/25 02:36:47;;;;;;;22.13;10.05;;;4.20;84.10;;;;;;6208496;28;20056;-83
2021/11/25 02:39:49;;;;;;;21.73;9.90;;;4.20;83.90;;;;;;6208263;28;20130;-83
2021/11/25 02:42:53;;;;;;;20.85;9.77;;;4.20;84.10;;;;;;6213347;28;20162;-81
2021/11/25 02:45:58;;;;;;;28.65;11.70;;;4.20;84.10;;;;;;6211608;28;20050;-81
2021/11/25 02:49:02;;;;;;;24.38;11.68;;;4.20;84.00;;;;;;6208358;28;20054;-81
2021/11/25 02:52:06;;;;;;;21.58;9.90;;;4.20;84.00;;;;;;6209009;28;20053;-81
2021/11/25 02:55:08;;;;;;;22.90;9.63;;;4.30;84.10;;;;;;6207708;28;20199;-81
2021/11/25 02:58:10;;;;;;;20.00;9.55;;;4.30;84.10;;;;;;6207502;28;20681;-84
2021/11/25 03:01:16;;;;;;;22.60;9.95;;;4.30;84.20;;;;;;6206852;28;20050;-82
2021/11/25 03:04:18;;;;;;;21.65;10.15;;;4.40;84.20;;;;;;6208314;28;20128;-81
2021/11/25 03:07:21;;;;;;;23.25;9.75;;;4.40;84.00;;;;;;6217804;28;20054;-82
2021/11/25 03:10:23;;;;;;;21.50;11.02;;;4.40;83.90;;;;;;6221374;28;20311;-82
2021/11/25 03:13:26;;;;;;;24.13;10.43;;;4.50;83.90;;;;;;6221152;28;20512;-81
2021/11/25 03:16:28;;;;;;;25.40;10.88;;;4.50;83.70;;;;;;6221526;28;20058;-81
2021/11/25 03:19:30;;;;;;;26.65;9.75;;;4.50;83.50;;;;;;6219789;28;20046;-84
2021/11/25 03:22:33;;;;;;;21.80;10.40;;;4.40;83.60;;;;;;6220411;28;20077;-84
2021/11/25 03:25:35;;;;;;;22.20;10.85;;;4.40;83.80;;;;;;6221280;28;20093;-83
2021/11/25 03:28:43;;;;;;;26.45;11.55;;;4.40;83.90;;;;;;6220148;28;20048;-84
2021/11/25 03:31:45;;;;;;;28.15;10.30;;;4.50;83.90;;;;;;6222820;28;20523;-83
2021/11/25 03:34:47;;;;;;;28.38;10.98;;;4.50;83.90;;;;;;6223874;28;20046;-84
2021/11/25 03:37:50;;;;;;;25.90;11.30;;;4.60;83.80;;;;;;6220147;28;20085;-84
2021/11/25 03:40:53;;;;;;;23.73;10.10;;;4.60;83.70;;;;;;6219521;28;20050;-84
2021/11/25 03:43:54;;;;;;;24.80;10.80;;;4.60;83.60;;;;;;6220749;28;20069;-84
2021/11/25 03:46:56;;;;;;;21.50;10.63;;;4.50;83.50;;;;;;6220913;28;20133;-84
2021/11/25 03:49:58;;;;;;;21.63;9.95;;;4.40;83.80;;;;;;6211610;28;20074;-81
2021/11/25 03:53:01;;;;;;;23.15;10.18;;;4.40;84.00;;;;;;6195429;28;20070;-84
2021/11/25 03:56:04;;;;;;;31.35;12.05;;;4.50;84.00;;;;;;6195892;28;20138;-84
2021/11/25 03:59:06;;;;;;;23.30;11.45;;;4.50;84.00;;;;;;6195434;28;20050;-84
2021/11/25 04:02:07;;;;;;;22.23;9.90;;;4.50;83.90;;;;;;6194668;28;20075;-83
2021/11/25 04:05:10;;;;;;;22.67;9.32;;;4.50;83.80;;;;;;6197348;28;20070;-83
2021/11/25 04:08:13;;;;;;;22.42;10.73;;;4.50;83.90;;;;;;6194956;28;20047;-83
2021/11/25 04:11:15;;;;;;;26.10;11.50;;;4.60;84.00;;;;;;6195313;28;20070;-83
2021/11/25 04:14:17;;;;;;;22.30;10.23;;;4.60;83.80;;;;;;6196624;28;20504;-83
2021/11/25 04:17:21;;;;;;;25.67;10.98;;;4.60;83.70;;;;;;6193549;28;20051;-83
2021/11/25 04:20:23;;;;;;;24.25;9.93;;;4.60;83.70;;;;;;6194953;28;20047;-82
2021/11/25 04:23:27;;;;;;;20.90;10.05;;;4.70;83.70;;;;;;6194809;28;20122;-82
2021/11/25 04:26:29;;;;;;;15.75;9.02;;;4.60;83.70;;;;;;6194794;28;20098;-83
2021/11/25 04:29:31;;;;;;;19.25;9.65;;;4.60;83.60;;;;;;6194447;28;20075;-82
2021/11/25 04:35:52;;;;;;;23.15;8.02;;;4.60;83.70;;;;;;6194265;28;20091;-84
2021/11/25 04:38:55;;;;;;;25.63;10.20;;;4.60;83.80;;;;;;6194680;28;20078;-82
2021/11/25 04:41:57;;;;;;;25.70;11.73;;;4.70;83.80;;;;;;6195087;28;20055;-82
2021/11/25 04:44:59;;;;;;;23.58;10.15;;;4.60;83.70;;;;;;6195755;28;20066;-83
2021/11/25 04:48:02;;;;;;;21.45;10.52;;;4.60;83.70;;;;;;6195687;28;20046;-83
2021/11/25 04:51:04;;;;;;;23.35;9.93;;;4.60;83.90;;;;;;6194951;28;20588;-84
2021/11/25 04:54:07;;;;;;;20.45;9.63;;;4.60;83.90;;;;;;6195085;28;20065;-82
2021/11/25 04:57:09;;;;;;;19.45;9.43;;;4.60;83.90;;;;;;6195182;28;20069;-82
2021/11/25 05:00:12;;;;;;;19.67;9.85;;;4.60;84.00;;;;;;6194715;28;20113;-81
2021/11/25 05:03:15;;;;;;;22.27;10.88;;;4.60;83.90;;;;;;6194238;28;20050;-84
2021/11/25 05:06:17;;;;;;;20.27;10.02;;;4.60;83.90;;;;;;6194809;28;20129;-83
2021/11/25 05:09:20;;;;;;;19.33;9.88;;;4.70;83.90;;;;;;6193280;28;20051;-81
2021/11/25 05:12:22;;;;;;;19.90;10.15;;;4.70;83.80;;;;;;6192546;28;20042;-81
2021/11/25 05:15:24;;;;;;;24.92;11.30;;;4.70;83.80;;;;;;6193379;28;20047;-83
2021/11/25 05:18:26;;;;;;;27.75;9.80;;;4.70;83.70;;;;;;6194492;28;20146;-84
2021/11/25 05:21:28;;;;;;;29.80;9.80;;;4.80;83.70;;;;;;6193385;28;20070;-84
2021/11/25 05:24:31;;;;;;;27.27;11.00;;;4.80;83.70;;;;;;6192875;28;20082;-83
2021/11/25 05:27:33;;;;;;;24.27;11.77;;;4.80;83.70;;;;;;6194376;28;20505;-84
2021/11/25 05:30:35;;;;;;;23.73;11.02;;;4.80;83.70;;;;;;6193874;28;20552;-81
2021/11/25 05:33:37;;;;;;;20.13;9.50;;;4.80;83.70;;;;;;6191949;28;20134;-80
2021/11/25 05:36:39;;;;;;;25.92;11.73;;;4.80;83.70;;;;;;6191500;28;20047;-82
2021/11/25 05:39:42;;;;;;;23.88;10.90;;;4.90;83.70;;;;;;6190956;28;20118;-80
2021/11/25 05:42:45;;;;;;;27.75;10.93;;;4.90;84.30;;;;;;6192379;28;20071;-81
2021/11/25 05:45:47;;;;;;;19.42;10.25;;;4.90;83.60;;;;;;6193433;28;20158;-81
2021/11/25 05:48:49;;;;;;;22.23;10.43;;;4.90;83.50;;;;;;6194836;28;20047;-83
2021/11/25 05:51:51;;;;;;;28.98;11.73;;;4.90;83.60;;;;;;6192164;28;20118;-85
2021/11/25 05:54:55;;;;;;;25.52;11.23;;;4.90;83.50;;;;;;6192255;28;20082;-82
2021/11/25 05:57:57;;;;;;;21.90;9.98;;;4.90;83.50;;;;;;6192098;28;20055;-82
2021/11/25 06:00:58;;;;;;;21.58;9.27;;;4.90;83.50;;;;;;6191859;28;20122;-85
2021/11/25 06:04:00;;;;;;;22.75;10.77;;;4.90;83.50;;;;;;6192894;28;20046;-84
2021/11/25 06:07:02;;;;;;;24.10;11.20;;;5.00;83.50;;;;;;6196314;28;20514;-83
2021/11/25 06:10:06;;;;;;;29.92;12.48;;;5.00;83.70;;;;;;6196900;28;20051;-83
2021/11/25 06:13:08;;;;;;;29.08;11.52;;;5.00;84.10;;;;;;6196920;28;20078;-84
2021/11/25 06:16:10;;;;;;;29.77;12.95;;;5.00;84.10;;;;;;6196164;28;20050;-84
2021/11/25 06:19:12;;;;;;;26.58;11.43;;;5.00;84.30;;;;;;6195692;28;20121;-84
2021/11/25 06:22:14;;;;;;;28.42;11.88;;;5.00;84.80;;;;;;6196438;28;20074;-83
2021/11/25 06:25:18;;;;;;;20.52;11.02;;;5.10;83.80;;;;;;6201211;28;20053;-81
2021/11/25 06:28:20;;;;;;;28.23;13.65;;;5.10;83.60;;;;;;6195015;28;20114;-82
2021/11/25 06:31:22;;;;;;;28.02;13.15;;;5.20;83.60;;;;;;6194963;28;20129;-83
2021/11/25 06:34:24;;;;;;;26.67;11.75;;;5.20;83.40;;;;;;6196475;28;20046;-83
2021/11/25 06:37:26;;;;;;;31.80;10.70;;;5.20;83.30;;;;;;6196608;28;20054;-83
2021/11/25 06:40:33;;;;;;;26.33;11.90;;;5.20;83.20;;;;;;6195992;28;20050;-81
2021/11/25 06:43:35;;;;;;;28.02;10.70;;;5.30;83.00;;;;;;6196680;28;20148;-83
2021/11/25 06:46:37;;;;;;;26.83;11.63;;;5.30;82.90;;;;;;6195824;28;20054;-82
2021/11/25 06:49:39;;;;;;;35.35;11.45;;;5.20;82.60;;;;;;6194423;28;20051;-81
2021/11/25 06:52:41;;;;;;;26.13;11.00;;;5.30;82.50;;;;;;6195816;28;20074;-82
2021/11/25 06:55:44;;;;;;;29.67;12.00;;;5.30;82.60;;;;;;6195480;28;20074;-82
2021/11/25 06:58:49;;;;;;;26.08;12.05;;;5.30;82.40;;;;;;6196001;28;20094;-82
2021/11/25 07:01:51;;;;;;;22.40;10.32;;;5.30;82.20;;;;;;6195163;28;20488;-83
2021/11/25 07:04:53;;;;;;;26.55;9.98;;;5.30;82.10;;;;;;6194648;28;20078;-83
2021/11/25 07:07:56;;;;;;;31.13;11.55;;;5.30;82.10;;;;;;6193829;28;20050;-83
2021/11/25 07:10:59;;;;;;;31.83;12.57;;;5.40;82.10;;;;;;6193787;28;20062;-82
2021/11/25 07:14:01;;;;;;;34.75;11.90;;;5.40;82.00;;;;;;6194607;28;20051;-83
2021/11/25 07:17:04;;;;;;;23.90;11.63;;;5.40;81.70;;;;;;6195574;28;20045;-82
2021/11/25 07:20:08;;;;;;;32.00;13.73;;;5.40;81.60;;;;;;6196127;28;20047;-83
2021/11/25 07:23:09;;;;;;;26.83;11.88;;;5.40;81.10;;;;;;6196713;28;20126;-82
2021/11/25 07:26:13;;;;;;;46.25;17.70;;;5.40;81.30;;;;;;6196803;28;20055;-81
2021/11/25 07:29:15;;;;;;;37.00;16.35;;;5.40;81.20;;;;;;6196122;28;20047;-81
2021/11/25 07:32:17;;;;;;;27.90;12.52;;;5.40;81.20;;;;;;6196158;28;20043;-83
2021/11/25 07:35:20;;;;;;;54.28;35.60;;;5.40;81.10;;;;;;6195927;28;20043;-81
2021/11/25 07:38:22;;;;;;;64.60;36.53;;;5.40;81.00;;;;;;6197127;28;20057;-82
2021/11/25 07:41:25;;;;;;;43.15;25.27;;;5.40;80.80;;;;;;6195100;28;20509;-83
2021/11/25 07:44:27;;;;;;;35.55;19.50;;;5.40;80.70;;;;;;6195837;28;20051;-82
2021/11/25 07:47:32;;;;;;;24.38;13.02;;;5.40;80.80;;;;;;6196526;28;20047;-83
2021/11/25 07:50:37;;;;;;;28.98;11.73;;;5.50;80.70;;;;;;6197956;28;20051;-83
2021/11/25 07:53:38;;;;;;;32.13;13.02;;;5.50;80.70;;;;;;6193958;28;20622;-82
2021/11/25 07:56:42;;;;;;;32.15;12.88;;;5.50;80.60;;;;;;6193797;28;20073;-82
2021/11/25 07:59:43;;;;;;;24.77;11.52;;;5.60;80.80;;;;;;6193015;28;20061;-83
2021/11/25 08:02:45;;;;;;;24.92;11.55;;;5.70;80.20;;;;;;6195949;28;20050;-82
2021/11/25 08:05:47;;;;;;;24.02;11.45;;;5.70;79.80;;;;;;6192573;28;20046;-82
2021/11/25 08:08:49;;;;;;;23.25;10.13;;;5.70;79.20;;;;;;6192424;28;20051;-83
2021/11/25 08:11:52;;;;;;;21.70;9.90;;;5.70;79.70;;;;;;6192662;28;20129;-81
2021/11/25 08:14:54;;;;;;;25.40;11.93;;;5.70;79.80;;;;;;6192553;28;20121;-82
2021/11/25 08:17:56;;;;;;;21.50;10.18;;;5.80;79.60;;;;;;6192624;28;20051;-82
2021/11/25 08:20:58;;;;;;;22.58;9.95;;;5.90;79.10;;;;;;6192858;28;20149;-82
2021/11/25 08:24:00;;;;;;;29.65;11.88;;;6.00;78.80;;;;;;6194064;28;20078;-83
2021/11/25 08:27:03;;;;;;;21.58;10.18;;;6.10;78.90;;;;;;6190304;28;20043;-83
2021/11/25 08:30:07;;;;;;;22.08;10.80;;;6.10;78.80;;;;;;6191639;28;20148;-82
2021/11/25 08:33:09;;;;;;;28.88;12.70;;;6.20;78.40;;;;;;6193157;28;20046;-83
2021/11/25 08:36:11;;;;;;;27.30;11.40;;;6.20;78.20;;;;;;6188877;28;20114;-83
2021/11/25 08:39:13;;;;;;;26.98;11.63;;;6.20;78.00;;;;;;6190071;28;20094;-83
2021/11/25 08:42:16;;;;;;;27.45;11.85;;;6.30;78.60;;;;;;6190946;28;20078;-81
2021/11/25 08:45:19;;;;;;;27.25;11.63;;;6.30;77.60;;;;;;6164945;28;20055;-82
2021/11/25 08:48:21;;;;;;;30.58;12.98;;;6.30;77.30;;;;;;6190987;28;20046;-80
2021/11/25 08:51:22;;;;;;;23.67;11.40;;;6.30;77.10;;;;;;6209998;28;20101;-82
2021/11/25 08:54:25;;;;;;;26.58;12.48;;;6.30;77.00;;;;;;6207527;28;20193;-82
2021/11/25 08:57:29;;;;;;;26.20;12.15;;;6.20;77.10;;;;;;6214540;28;20588;-82
2021/11/25 09:00:33;;;;;;;26.38;12.25;;;6.30;77.40;;;;;;6211021;28;20496;-81
2021/11/25 09:03:35;;;;;;;29.77;11.70;;;6.20;76.00;;;;;;6212168;28;20046;-82
2021/11/25 09:06:37;;;;;;;34.28;12.85;;;6.10;76.50;;;;;;6213248;28;20057;-80
2021/11/25 09:09:39;;;;;;;31.77;12.95;;;6.20;76.10;;;;;;6211724;28;20563;-81
2021/11/25 09:12:42;;;;;;;30.92;13.30;;;6.10;76.20;;;;;;6217078;28;20070;-79
2021/11/25 09:15:44;;;;;;;32.28;13.68;;;6.10;76.30;;;;;;6219291;28;20046;-80
2021/11/25 09:18:46;;;;;;;27.65;13.82;;;6.10;76.40;;;;;;6206896;28;20062;-80
2021/11/25 09:21:48;;;;;;;31.27;11.80;;;6.10;76.60;;;;;;6196123;28;20038;-80
2021/11/25 09:24:51;;;;;;;28.40;13.32;;;6.10;76.20;;;;;;6197584;28;20051;-78
2021/11/25 09:27:54;;;;;;;28.23;13.18;;;6.20;76.50;;;;;;6193325;28;20063;-80
2021/11/25 09:30:57;;;;;;;33.08;11.45;;;6.20;75.50;;;;;;6191710;28;20110;-79
2021/11/25 09:34:00;;;;;;;29.58;12.38;;;6.30;75.60;;;;;;6191536;28;20055;-81
2021/11/25 09:37:02;;;;;;;26.15;11.98;;;6.30;75.60;;;;;;6189175;28;20051;-81
2021/11/25 09:40:09;;;;;;;28.80;12.23;;;6.50;75.40;;;;;;6193691;28;20069;-82
2021/11/25 09:43:20;;;;;;;31.33;13.80;;;6.60;74.60;;;;;;6195321;28;20470;-80
2021/11/25 09:46:24;;;;;;;32.47;13.95;;;6.60;73.90;;;;;;6201865;28;20069;-80
2021/11/25 09:49:29;;;;;;;37.17;14.30;;;6.70;74.00;;;;;;6204835;28;20685;-82
2021/11/25 09:52:31;;;;;;;34.35;13.98;;;6.70;73.20;;;;;;6208230;28;20138;-78
2021/11/25 09:55:33;;;;;;;31.15;13.93;;;6.70;72.60;;;;;;6209766;28;20066;-81
2021/11/25 09:58:38;;;;;;;34.60;14.82;;;6.70;73.30;;;;;;6217939;28;20077;-78
2021/11/25 10:01:40;;;;;;;30.45;13.00;;;6.70;72.30;;;;;;6219842;28;20093;-82
2021/11/25 10:04:41;;;;;;;31.58;13.93;;;6.70;72.70;;;;;;6228028;28;20046;-80
2021/11/25 10:07:45;;;;;;;32.92;13.88;;;6.70;72.80;;;;;;6223978;28;20147;-81
2021/11/25 10:10:56;;;;;;;28.00;13.00;;;6.70;72.10;;;;;;6219319;28;20060;-79
2021/11/25 10:14:04;;;;;;;28.20;12.90;;;6.70;71.90;;;;;;6221553;28;20050;-82
2021/11/25 10:17:08;;;;;;;36.83;14.48;;;6.80;72.70;;;;;;6213972;28;20046;-81
2021/11/25 10:20:11;;;;;;;32.60;14.45;;;7.00;72.50;;;;;;6212398;28;20098;-80
2021/11/25 10:23:20;;;;;;;33.90;15.27;;;7.20;72.00;;;;;;6217162;28;20058;-81
2021/11/25 10:26:24;;;;;;;31.55;14.50;;;7.30;71.20;;;;;;6203522;28;20129;-82
2021/11/25 10:29:27;;;;;;;25.83;13.63;;;7.40;70.80;;;;;;6190164;28;20202;-82
2021/11/25 10:32:29;;;;;;;32.00;14.48;;;7.50;70.30;;;;;;6190476;28;20070;-82
2021/11/25 10:35:40;;;;;;;32.00;14.23;;;7.50;70.30;;;;;;6190515;28;20050;-81
2021/11/25 10:38:58;;;;;;;25.63;12.40;;;7.50;69.80;;;;;;6191627;28;20054;-81
2021/11/25 10:42:02;;;;;;;26.00;12.55;;;7.40;69.80;;;;;;6191215;28;20062;-82
2021/11/25 10:45:11;;;;;;;26.38;12.48;;;7.40;69.90;;;;;;6191549;28;20077;-82
2021/11/25 10:48:13;;;;;;;32.83;15.68;;;7.50;69.50;;;;;;6210097;28;20103;-81
2021/11/25 10:51:30;;;;;;;30.42;13.63;;;7.50;69.10;;;;;;6189558;28;20581;-82
2021/11/25 10:54:32;;;;;;;28.00;13.98;;;7.50;69.00;;;;;;6190574;28;20114;-82
2021/11/25 10:57:40;;;;;;;28.00;12.10;;;7.60;69.00;;;;;;6190781;28;20042;-80
2021/11/25 11:00:46;;;;;;;27.55;13.27;;;7.60;68.60;;;;;;6190909;28;20113;-79
2021/11/25 11:03:57;;;;;;;30.27;13.80;;;7.60;67.60;;;;;;6200895;28;20106;-80
2021/11/25 11:06:59;;;;;;;28.65;15.45;;;7.50;68.00;;;;;;6211590;28;20394;-81
2021/11/25 11:10:16;;;;;;;26.88;12.43;;;7.50;68.00;;;;;;6211670;28;20097;-81
2021/11/25 11:13:32;;;;;;;23.77;11.15;;;7.40;67.70;;;;;;6212305;28;20128;-81
2021/11/25 11:16:42;;;;;;;24.00;12.65;;;7.40;68.10;;;;;;6208457;28;20069;-82
2021/11/25 11:20:13;;;;;;;27.25;12.18;;;7.50;68.20;;;;;;6208747;28;20042;-81
2021/11/25 11:23:16;;;;;;;19.02;10.40;;;7.50;67.80;;;;;;6213103;28;20069;-81
2021/11/25 11:26:18;;;;;;;26.60;11.65;;;7.60;67.50;;;;;;6212294;28;20157;-80
2021/11/25 11:29:22;;;;;;;19.92;10.85;;;7.50;66.30;;;;;;6210754;28;20154;-81
2021/11/25 11:32:25;;;;;;;22.48;11.15;;;7.50;66.10;;;;;;6211001;28;20105;-81
2021/11/25 11:35:27;;;;;;;27.38;11.50;;;7.30;66.50;;;;;;6211159;28;20050;-81
2021/11/25 11:38:32;;;;;;;26.15;12.23;;;7.10;66.60;;;;;;6212664;28;20089;-79
2021/11/25 11:41:34;;;;;;;20.55;10.48;;;7.00;67.60;;;;;;6216761;28;20054;-82
2021/11/25 11:44:36;;;;;;;23.33;12.57;;;7.10;67.90;;;;;;6217434;28;20465;-82
2021/11/25 11:47:39;;;;;;;22.05;10.77;;;7.10;67.50;;;;;;6210152;28;20110;-82
2021/11/25 11:50:44;;;;;;;21.05;11.48;;;7.20;67.50;;;;;;6214420;28;20077;-82
2021/11/25 11:53:50;;;;;;;25.70;11.30;;;7.30;67.50;;;;;;6213868;28;20053;-83
2021/11/25 11:56:52;;;;;;;19.67;11.10;;;7.40;67.40;;;;;;6213159;28;20047;-83
2021/11/25 11:59:54;;;;;;;27.65;13.20;;;7.40;66.90;;;;;;6213785;28;20105;-81
2021/11/25 12:02:59;;;;;;;30.25;15.13;;;7.40;66.80;;;;;;6212268;28;20102;-81
2021/11/25 12:06:01;;;;;;;32.75;13.48;;;7.40;66.90;;;;;;6213331;28;20053;-82
2021/11/25 12:09:05;;;;;;;26.73;13.05;;;7.30;67.10;;;;;;6212532;28;20066;-81
2021/11/25 12:12:14;;;;;;;31.30;13.23;;;7.30;67.20;;;;;;6211355;28;20050;-81
2021/11/25 12:15:19;;;;;;;26.03;13.40;;;7.30;67.20;;;;;;6212264;28;20066;-81
2021/11/25 12:18:33;;;;;;;28.88;13.98;;;7.20;67.40;;;;;;6203419;28;20315;-79
2021/11/25 12:21:38;;;;;;;24.85;11.80;;;7.30;67.00;;;;;;6207855;28;20074;-81
2021/11/25 12:24:48;;;;;;;29.27;14.13;;;7.30;67.00;;;;;;6210813;28;20054;-82
2021/11/25 12:27:49;;;;;;;32.85;14.73;;;7.30;66.90;;;;;;6210217;28;20058;-79
2021/11/25 12:30:55;;;;;;;37.47;16.10;;;7.30;67.00;;;;;;6210207;28;20058;-82
2021/11/25 12:33:58;;;;;;;37.95;16.05;;;7.20;66.80;;;;;;6211720;28;20058;-81
2021/11/25 12:37:00;;;;;;;32.80;14.30;;;7.20;67.50;;;;;;6208269;28;20118;-82
2021/11/25 12:40:02;;;;;;;38.00;14.93;;;7.20;66.80;;;;;;6212341;28;20046;-82
2021/11/25 12:43:06;;;;;;;35.38;16.45;;;7.20;66.90;;;;;;6216884;28;20078;-83
2021/11/25 12:46:11;;;;;;;36.90;17.23;;;7.20;67.10;;;;;;6213084;28;20114;-82
2021/11/25 12:49:17;;;;;;;51.83;23.20;;;7.10;67.30;;;;;;6195923;28;20047;-80
2021/11/25 12:52:38;;;;;;;36.67;17.45;;;7.20;67.50;;;;;;6189464;28;20145;-81
2021/11/25 12:55:42;;;;;;;37.13;17.88;;;7.20;67.50;;;;;;6188013;28;20070;-81
2021/11/25 12:58:51;;;;;;;40.67;18.80;;;7.30;67.20;;;;;;6191839;28;20038;-81
2021/11/25 13:01:53;;;;;;;37.03;16.20;;;7.20;67.10;;;;;;6187855;28;20129;-81
2021/11/25 13:05:09;;;;;;;35.17;15.15;;;7.20;67.10;;;;;;6189087;28;20134;-83
2021/11/25 13:08:12;;;;;;;44.20;18.10;;;7.20;67.30;;;;;;6189032;28;20428;-81
2021/11/25 13:11:18;;;;;;;76.97;31.98;;;7.20;67.30;;;;;;6187215;28;20043;-79
2021/11/25 13:14:24;;;;;;;35.60;17.30;;;7.20;67.40;;;;;;6188185;28;20110;-80
2021/11/25 13:17:26;;;;;;;42.33;17.77;;;7.20;67.30;;;;;;6198375;28;20058;-81
2021/11/25 13:20:46;;;;;;;36.33;16.98;;;7.20;67.00;;;;;;6206268;28;20102;-82
2021/11/25 13:23:56;;;;;;;40.05;17.48;;;7.10;67.00;;;;;;6213175;28;20046;-81
2021/11/25 13:27:01;;;;;;;43.67;17.45;;;7.00;66.90;;;;;;6213990;28;20412;-81
2021/11/25 13:30:03;;;;;;;37.90;16.98;;;7.00;67.00;;;;;;6214159;28;20492;-79
2021/11/25 13:33:08;;;;;;;36.17;15.93;;;7.00;67.40;;;;;;6211274;28;20053;-78
2021/11/25 13:36:11;;;;;;;38.60;17.70;;;6.90;67.70;;;;;;6221188;28;20287;-77
2021/11/25 13:39:19;;;;;;;43.30;16.40;;;6.80;67.60;;;;;;6218523;28;20046;-80
2021/11/25 13:42:22;;;;;;;30.92;15.30;;;6.80;68.00;;;;;;6217774;28;20053;-78
2021/11/25 13:45:31;;;;;;;39.22;17.42;;;6.70;68.10;;;;;;6215918;28;20113;-80
2021/11/25 13:48:33;;;;;;;37.40;15.73;;;6.70;68.30;;;;;;6205102;28;20132;-80
2021/11/25 13:51:40;;;;;;;37.33;17.13;;;6.70;68.30;;;;;;6214700;28;20143;-79
2021/11/25 13:54:43;;;;;;;36.05;16.15;;;6.60;68.40;;;;;;6215155;28;20050;-81
2021/11/25 13:57:46;;;;;;;34.78;15.73;;;6.50;68.60;;;;;;6212539;28;20052;-81
2021/11/25 14:00:49;;;;;;;38.08;14.90;;;6.50;69.00;;;;;;6212865;28;20042;-82
2021/11/25 14:03:53;;;;;;;42.22;19.27;;;6.50;69.30;;;;;;6215565;28;20047;-81
2021/11/25 14:07:06;;;;;;;41.17;18.33;;;6.40;69.30;;;;;;6215370;28;20109;-82
2021/11/25 14:10:11;;;;;;;40.17;18.38;;;6.40;69.60;;;;;;6216447;28;20106;-80
2021/11/25 14:13:15;;;;;;;43.50;18.05;;;6.40;69.60;;;;;;6217649;28;20050;-79
2021/11/25 14:16:19;;;;;;;36.45;18.83;;;6.40;69.80;;;;;;6212012;28;20049;-80
2021/11/25 14:19:23;;;;;;;40.83;17.33;;;6.30;70.00;;;;;;6203942;28;20050;-79
2021/11/25 14:22:29;;;;;;;40.25;17.95;;;6.30;70.30;;;;;;6212229;28;20051;-78
2021/11/25 14:25:35;;;;;;;40.33;17.25;;;6.30;70.40;;;;;;6218117;28;20057;-78
2021/11/25 14:32:16;;;;;;;34.03;16.17;;;6.30;70.30;;;;;;6150101;29;20043;-78
2021/11/25 14:35:44;;;;;;;41.13;17.35;;;6.30;70.30;;;;;;6220997;28;20043;-81
2021/11/25 14:38:48;;;;;;;42.28;18.67;;;6.30;70.40;;;;;;6220600;28;20046;-81
2021/11/25 14:41:52;;;;;;;40.25;17.42;;;6.20;70.40;;;;;;6220545;28;20061;-80
2021/11/25 14:45:06;;;;;;;41.65;18.75;;;6.20;70.60;;;;;;6216723;28;20064;-81
2021/11/25 14:48:19;;;;;;;54.65;20.20;;;6.20;70.80;;;;;;6206638;28;20110;-80
2021/11/25 14:51:20;;;;;;;51.78;20.73;;;6.20;70.80;;;;;;6191288;28;20105;-80
2021/11/25 14:54:24;;;;;;;43.22;17.65;;;6.20;70.90;;;;;;6191617;28;20050;-80
2021/11/25 14:57:27;;;;;;;36.83;16.17;;;6.20;70.80;;;;;;6191950;28;20255;-80
2021/11/25 15:00:36;;;;;;;38.58;15.23;;;6.20;70.70;;;;;;6203809;28;20074;-79
2021/11/25 15:03:38;;;;;;;38.63;15.55;;;6.20;70.70;;;;;;6208615;28;20074;-80
2021/11/25 15:06:42;;;;;;;35.72;16.90;;;6.20;70.60;;;;;;6193801;28;20272;-80
2021/11/25 15:09:45;;;;;;;33.25;14.35;;;6.20;70.70;;;;;;6185300;28;20039;-81
2021/11/25 15:12:47;;;;;;;33.28;15.13;;;6.20;71.10;;;;;;6184243;28;20051;-81
2021/11/25 15:15:51;;;;;;;41.88;15.85;;;6.10;70.70;;;;;;6183622;28;20427;-81
2021/11/25 15:18:53;;;;;;;34.38;13.88;;;6.10;70.60;;;;;;6196069;28;20206;-80
2021/11/25 15:21:56;;;;;;;51.97;24.42;;;6.10;70.60;;;;;;6182995;28;20050;-81
2021/11/25 15:25:00;;;;;;;31.55;14.70;;;6.00;70.60;;;;;;6203692;28;20054;-80
2021/11/25 15:28:02;;;;;;;34.33;15.60;;;6.00;70.70;;;;;;6206434;28;20097;-80
2021/11/25 15:31:04;;;;;;;27.95;13.68;;;6.00;70.80;;;;;;6204947;28;20042;-79
2021/11/25 15:34:07;;;;;;;34.05;12.85;;;6.00;70.80;;;;;;6205440;28;20046;-80
2021/11/25 15:37:09;;;;;;;27.10;11.70;;;6.00;70.70;;;;;;6203590;28;20053;-79
2021/11/25 15:40:13;;;;;;;35.40;14.18;;;6.00;70.50;;;;;;6204894;28;20073;-82
2021/11/25 15:43:16;;;;;;;28.25;12.43;;;6.10;71.20;;;;;;6204736;28;20524;-79
2021/11/25 15:46:19;;;;;;;27.27;13.45;;;6.00;70.60;;;;;;6201143;28;20065;-80
2021/11/25 15:49:21;;;;;;;31.40;12.75;;;5.90;70.20;;;;;;6199304;28;20057;-82
2021/11/25 15:52:22;;;;;;;40.60;17.15;;;6.00;70.50;;;;;;6196538;28;20134;-80